Terminal Aerodrome Forecast
Issued by NWS

Home | Current Version | Previous Version | Text Only | Print | Product List | Glossary On
Versions: 1 2 3 4 5 6 7 8 9 10 11 12 13
000
FTUS43 KDMX 220538
TAFMCW
TAF
KMCW 220538Z 2206/2306 32009KT P6SM SKC
     FM221500 22005KT P6SM SKC
     FM221700 21009KT P6SM BKN200
     FM230000 19010G19KT P6SM BKN110
     FM230300 21010KT P6SM SCT080=

USA.gov is the U.S. government's official web portal to all federal, state and local government web resources and services.